createdAt,value
2023-03-29T00:01:35.383Z,100361.66
2023-03-29T00:04:06.453Z,100362.88
2023-03-29T00:06:38.879Z,100362.20
2023-03-29T00:09:09.591Z,100358.27
2023-03-29T00:11:38.117Z,100358.80
2023-03-29T00:14:06.867Z,100355.91
2023-03-29T00:16:35.787Z,100358.55
2023-03-29T00:19:04.255Z,100355.80
2023-03-29T00:21:32.641Z,100352.69
2023-03-29T00:24:01.022Z,100349.23
2023-03-29T00:26:29.381Z,100350.08
2023-03-29T00:28:59.028Z,100348.50
2023-03-29T00:31:27.762Z,100354.67
2023-03-29T00:33:57.060Z,100352.56
2023-03-29T00:36:25.344Z,100355.45
2023-03-29T00:38:53.544Z,100352.50
2023-03-29T00:41:21.932Z,100349.88
2023-03-29T00:43:52.544Z,100349.14
2023-03-29T00:46:26.487Z,100347.19
2023-03-29T00:49:10.036Z,100347.33
2023-03-29T00:51:41.615Z,100342.78
2023-03-29T00:54:15.175Z,100335.30
2023-03-29T00:56:46.486Z,100336.10
2023-03-29T00:59:29.113Z,100337.39
2023-03-29T01:02:07.392Z,100332.29
2023-03-29T01:05:05.911Z,100330.52
2023-03-29T01:08:08.083Z,100323.08
2023-03-29T01:10:42.808Z,100326.00
2023-03-29T01:13:17.310Z,100324.45
2023-03-29T01:15:47.125Z,100322.89
2023-03-29T01:18:20.075Z,100318.73
2023-03-29T01:21:30.522Z,100317.02
2023-03-29T01:24:25.177Z,100311.01
2023-03-29T01:27:14.936Z,100309.35
2023-03-29T01:29:54.364Z,100303.52
2023-03-29T01:32:35.112Z,100298.40
2023-03-29T01:35:10.738Z,100294.80
2023-03-29T01:38:07.596Z,100293.61
2023-03-29T01:40:36.474Z,100295.15
2023-03-29T01:43:04.926Z,100293.60
2023-03-29T01:45:55.025Z,100287.91
2023-03-29T01:48:39.749Z,100285.66
2023-03-29T01:51:17.833Z,100280.30
2023-03-29T01:53:59.446Z,100275.98
2023-03-29T01:56:30.123Z,100273.25
2023-03-29T01:59:06.462Z,100271.70
2023-03-29T02:01:42.592Z,100270.83
2023-03-29T02:04:14.401Z,100270.15
2023-03-29T02:06:43.529Z,100267.04
2023-03-29T02:09:13.188Z,100262.88
2023-03-29T02:11:43.238Z,100263.06
2023-03-29T02:14:11.435Z,100258.38
2023-03-29T02:16:41.066Z,100257.50
2023-03-29T02:19:10.927Z,100250.44
2023-03-29T02:21:55.718Z,100253.54
2023-03-29T02:24:26.323Z,100252.33
2023-03-29T02:26:54.546Z,100252.15
2023-03-29T02:29:22.797Z,100251.78
2023-03-29T02:31:58.841Z,100250.88
2023-03-29T02:34:37.909Z,100245.84
2023-03-29T02:37:15.836Z,100247.34
2023-03-29T02:39:48.426Z,100247.99
2023-03-29T02:42:20.570Z,100248.63
2023-03-29T02:44:52.448Z,100244.41
2023-03-29T02:47:32.325Z,100235.18
2023-03-29T02:50:00.658Z,100233.35
2023-03-29T02:52:36.057Z,100231.89
2023-03-29T02:55:08.281Z,100229.56
2023-03-29T02:57:38.602Z,100225.35
2023-03-29T03:00:10.648Z,100221.13
2023-03-29T03:02:40.956Z,100221.23
2023-03-29T03:05:10.806Z,100216.71
2023-03-29T03:07:40.805Z,100214.95
2023-03-29T03:10:10.387Z,100214.95
2023-03-29T03:12:40.462Z,100213.88
2023-03-29T03:15:18.088Z,100208.39
2023-03-29T03:17:46.775Z,100206.88
2023-03-29T03:20:15.247Z,100201.58
2023-03-29T03:22:48.959Z,100207.14
2023-03-29T03:25:22.313Z,100201.52
2023-03-29T03:27:51.002Z,100192.13
2023-03-29T03:30:19.369Z,100183.95
2023-03-29T03:32:48.061Z,100184.38
2023-03-29T03:35:16.462Z,100187.71
2023-03-29T03:37:44.882Z,100182.96
2023-03-29T03:40:14.001Z,100177.00
2023-03-29T03:42:42.617Z,100173.61
2023-03-29T03:45:12.352Z,100171.06
2023-03-29T03:47:41.284Z,100169.88
2023-03-29T03:50:09.857Z,100164.55
2023-03-29T03:52:38.169Z,100164.21
2023-03-29T03:55:06.763Z,100160.95
2023-03-29T03:57:38.178Z,100162.17
2023-03-29T04:00:20.126Z,100159.60
2023-03-29T04:02:49.965Z,100162.20
2023-03-29T04:05:18.265Z,100167.72
2023-03-29T04:07:46.912Z,100165.65
2023-03-29T04:10:15.966Z,100167.05
2023-03-29T04:12:44.275Z,100162.91
2023-03-29T04:15:12.941Z,100162.23
2023-03-29T04:17:41.378Z,100157.62
2023-03-29T04:20:12.758Z,100159.36
2023-03-29T04:22:41.374Z,100158.16
2023-03-29T04:25:11.869Z,100160.58
2023-03-29T04:27:40.639Z,100160.03
2023-03-29T04:30:09.794Z,100156.41
2023-03-29T04:32:38.365Z,100150.70
2023-03-29T04:35:08.145Z,100150.19
2023-03-29T04:37:40.491Z,100148.96
2023-03-29T04:40:10.176Z,100144.31
2023-03-29T04:42:39.712Z,100138.81
2023-03-29T04:45:09.043Z,100134.18
2023-03-29T04:47:39.863Z,100128.02
2023-03-29T04:50:08.984Z,100122.89
2023-03-29T04:52:37.802Z,100126.36
2023-03-29T04:55:07.716Z,100130.69
2023-03-29T04:57:36.014Z,100133.11
2023-03-29T05:00:17.764Z,100129.98
2023-03-29T05:02:47.667Z,100131.03
2023-03-29T05:05:16.243Z,100131.67
2023-03-29T05:07:46.253Z,100135.23
2023-03-29T05:10:15.112Z,100135.14
2023-03-29T05:12:43.440Z,100134.68
2023-03-29T05:15:12.298Z,100131.35
2023-03-29T05:17:40.891Z,100131.80
2023-03-29T05:20:10.466Z,100134.86
2023-03-29T05:22:40.444Z,100132.27
2023-03-29T05:25:11.657Z,100132.95
2023-03-29T05:27:40.198Z,100131.58
2023-03-29T05:30:09.531Z,100130.56
2023-03-29T05:32:38.507Z,100128.87
2023-03-29T05:35:07.221Z,100136.13
2023-03-29T05:37:35.484Z,100136.84
2023-03-29T05:40:08.280Z,100133.42
2023-03-29T05:42:38.773Z,100131.91
2023-03-29T05:45:08.535Z,100134.52
2023-03-29T05:47:38.687Z,100130.42
2023-03-29T05:50:09.896Z,100127.90
2023-03-29T05:52:41.193Z,100128.46
2023-03-29T05:55:10.636Z,100124.02
2023-03-29T05:57:38.942Z,100119.59
2023-03-29T06:00:25.717Z,100116.36
2023-03-29T06:02:54.037Z,100110.88
2023-03-29T06:05:22.584Z,100108.33
2023-03-29T06:07:52.081Z,100109.73
2023-03-29T06:10:21.259Z,100109.77
2023-03-29T06:12:49.925Z,100108.41
2023-03-29T06:15:18.452Z,100112.02
2023-03-29T06:17:47.542Z,100109.79
2023-03-29T06:20:16.198Z,100110.50
2023-03-29T06:22:44.423Z,100112.22
2023-03-29T06:25:14.432Z,100106.40
2023-03-29T06:27:42.658Z,100102.28
2023-03-29T06:30:12.520Z,100100.93
2023-03-29T06:32:42.244Z,100100.27
2023-03-29T06:35:11.232Z,100098.73
2023-03-29T06:37:42.159Z,100099.95
2023-03-29T06:40:11.066Z,100096.15
2023-03-29T06:42:40.229Z,100095.46
2023-03-29T06:45:09.040Z,100091.67
2023-03-29T06:47:38.677Z,100092.02
2023-03-29T06:50:08.729Z,100091.14
2023-03-29T06:52:37.073Z,100090.77
2023-03-29T06:55:08.064Z,100085.90
2023-03-29T06:57:36.217Z,100081.70
2023-03-29T07:00:17.405Z,100076.97
2023-03-29T07:02:46.255Z,100075.48
2023-03-29T07:05:15.272Z,100074.03
2023-03-29T07:08:14.184Z,100076.70
2023-03-29T07:10:47.630Z,100075.75
2023-03-29T07:13:17.505Z,100070.64
2023-03-29T07:15:46.658Z,100071.98
2023-03-29T07:18:14.898Z,100077.62
2023-03-29T07:20:44.886Z,100078.73
2023-03-29T07:23:13.254Z,100076.59
2023-03-29T07:25:41.672Z,100075.59
2023-03-29T07:28:11.404Z,100077.55
2023-03-29T07:30:39.637Z,100080.23
2023-03-29T07:33:09.935Z,100083.48
2023-03-29T07:35:38.703Z,100080.89
2023-03-29T07:38:08.457Z,100076.36
2023-03-29T07:40:36.765Z,100072.31
2023-03-29T07:43:09.170Z,100070.52
2023-03-29T07:45:37.846Z,100074.73
2023-03-29T07:48:07.314Z,100074.90
2023-03-29T07:50:35.502Z,100065.20
2023-03-29T07:53:03.833Z,100060.02
2023-03-29T07:55:32.304Z,100064.48
2023-03-29T07:58:01.695Z,100063.95
2023-03-29T08:00:30.450Z,100062.61
2023-03-29T08:02:58.950Z,100063.72
2023-03-29T08:05:40.123Z,100060.38
2023-03-29T08:08:10.468Z,100055.95
2023-03-29T08:10:39.704Z,100052.45
2023-03-29T08:13:09.330Z,100051.68
2023-03-29T08:15:40.258Z,100041.61
2023-03-29T08:18:08.805Z,100040.38
2023-03-29T08:20:37.245Z,100035.80
2023-03-29T08:23:05.521Z,100038.61
2023-03-29T08:25:35.489Z,100033.55
2023-03-29T08:28:03.882Z,100031.86
2023-03-29T08:30:32.448Z,100030.53
2023-03-29T08:33:01.146Z,100024.73
2023-03-29T08:35:29.515Z,100023.31
2023-03-29T08:37:59.086Z,100026.15
2023-03-29T08:40:30.443Z,100017.65
2023-03-29T08:43:22.388Z,100020.54
2023-03-29T08:46:11.414Z,100026.55
2023-03-29T08:48:44.499Z,100028.63
2023-03-29T08:51:31.814Z,100027.38
2023-03-29T08:54:02.653Z,100027.17
2023-03-29T08:56:34.756Z,100019.73
2023-03-29T08:59:06.795Z,100017.42
2023-03-29T09:01:37.721Z,100018.77
2023-03-29T09:04:21.851Z,100017.54
2023-03-29T09:06:54.536Z,100016.91
2023-03-29T09:09:28.385Z,100023.36
2023-03-29T09:12:35.834Z,100023.52
2023-03-29T09:15:11.446Z,100023.34
2023-03-29T09:17:48.332Z,100022.73
2023-03-29T09:20:41.982Z,100019.80
2023-03-29T09:23:10.780Z,100016.48
2023-03-29T09:26:11.404Z,100015.21
2023-03-29T09:28:48.481Z,100012.16
2023-03-29T09:31:27.728Z,100011.94
2023-03-29T09:33:59.620Z,100008.52
2023-03-29T09:36:44.000Z,100004.80
2023-03-29T09:39:15.323Z,100007.76
2023-03-29T09:42:09.379Z,100006.14
2023-03-29T09:44:44.947Z,100007.36
2023-03-29T09:47:25.322Z,100005.65
2023-03-29T09:50:03.005Z,100000.86
2023-03-29T09:52:31.617Z,99995.75
2023-03-29T09:55:05.486Z,99995.59
2023-03-29T09:57:34.219Z,99985.31
2023-03-29T10:00:06.532Z,99980.34
2023-03-29T10:02:34.999Z,99978.86
2023-03-29T10:05:06.269Z,99974.96
2023-03-29T10:07:46.520Z,99971.91
2023-03-29T10:10:34.341Z,99962.89
2023-03-29T10:13:11.635Z,99957.90
2023-03-29T10:15:39.873Z,99953.33
2023-03-29T10:18:14.059Z,99950.98
2023-03-29T10:20:42.312Z,99943.71
2023-03-29T10:23:18.565Z,99940.46
2023-03-29T10:25:47.144Z,99939.32
2023-03-29T10:28:20.316Z,99933.79
2023-03-29T10:30:55.750Z,99931.48
2023-03-29T10:33:27.561Z,99932.11
2023-03-29T10:35:57.901Z,99926.64
2023-03-29T10:38:29.583Z,99922.18
2023-03-29T10:41:10.136Z,99916.73
2023-03-29T10:43:43.077Z,99915.95
2023-03-29T10:46:19.741Z,99914.73
2023-03-29T10:48:51.468Z,99906.93
2023-03-29T10:51:20.625Z,99910.42
2023-03-29T10:53:48.953Z,99906.98
2023-03-29T10:56:42.092Z,99899.98
2023-03-29T10:59:31.719Z,99895.83
2023-03-29T11:02:15.095Z,99890.77
2023-03-29T11:05:00.375Z,99895.01
2023-03-29T11:07:50.016Z,99890.77
2023-03-29T11:10:37.168Z,99889.63
2023-03-29T11:13:14.373Z,99878.46
2023-03-29T11:15:46.633Z,99877.13
2023-03-29T11:18:30.534Z,99873.12
2023-03-29T11:21:13.897Z,99866.72
2023-03-29T11:23:56.963Z,99866.68
2023-03-29T11:26:34.171Z,99865.59
2023-03-29T11:29:17.583Z,99864.63
2023-03-29T11:32:10.753Z,99868.84
2023-03-29T11:34:52.644Z,99867.95
2023-03-29T11:37:33.043Z,99870.73
2023-03-29T11:40:26.418Z,99865.61
2023-03-29T11:42:59.163Z,99860.23
2023-03-29T11:45:36.936Z,99858.00
2023-03-29T11:48:07.926Z,99853.20
2023-03-29T11:50:48.738Z,99849.77
2023-03-29T11:53:26.852Z,99845.60
2023-03-29T11:55:57.304Z,99846.02
2023-03-29T11:58:38.753Z,99839.80
2023-03-29T12:01:13.866Z,99837.44
2023-03-29T12:04:01.795Z,99832.59
2023-03-29T12:06:44.098Z,99836.09
2023-03-29T12:09:38.765Z,99833.88
2023-03-29T12:12:15.771Z,99824.52
2023-03-29T12:14:57.165Z,99825.02
2023-03-29T12:17:38.502Z,99822.73
2023-03-29T12:20:12.754Z,99823.34
2023-03-29T12:22:41.051Z,99830.28
2023-03-29T12:25:18.783Z,99826.02
2023-03-29T12:28:20.842Z,99816.37
2023-03-29T12:30:59.336Z,99803.08
2023-03-29T12:33:51.829Z,99802.98
2023-03-29T12:36:35.879Z,99795.38
2023-03-29T12:39:04.699Z,99787.19
2023-03-29T12:41:37.877Z,99791.06
2023-03-29T12:44:07.835Z,99794.30
2023-03-29T12:46:37.878Z,99793.20
2023-03-29T12:49:21.918Z,99782.64
2023-03-29T12:51:51.464Z,99788.85
2023-03-29T12:54:28.151Z,99783.61
2023-03-29T12:57:18.893Z,99790.55
2023-03-29T12:59:50.886Z,99793.09
2023-03-29T13:02:19.290Z,99793.38
2023-03-29T13:05:01.328Z,99792.08
2023-03-29T13:07:48.158Z,99791.98
2023-03-29T13:10:39.773Z,99787.33
2023-03-29T13:13:30.060Z,99791.43
2023-03-29T13:16:12.053Z,99788.17
2023-03-29T13:19:08.706Z,99787.23
2023-03-29T13:22:04.794Z,99785.17
2023-03-29T13:25:01.520Z,99788.35
2023-03-29T13:27:51.914Z,99778.23
2023-03-29T13:30:48.537Z,99785.52
2023-03-29T13:33:43.810Z,99789.73
2023-03-29T13:36:41.782Z,99796.64
2023-03-29T13:39:28.603Z,99793.69
2023-03-29T13:42:19.906Z,99799.13
2023-03-29T13:45:36.225Z,99793.23
2023-03-29T13:48:31.941Z,99793.59
2023-03-29T13:51:18.741Z,99785.67
2023-03-29T13:54:10.955Z,99786.85
2023-03-29T13:57:09.318Z,99779.13
2023-03-29T14:00:02.688Z,99768.52
2023-03-29T14:02:51.234Z,99762.61
2023-03-29T14:05:25.583Z,99758.96
2023-03-29T14:07:54.917Z,99753.28
2023-03-29T14:10:28.188Z,99751.81
2023-03-29T14:12:57.823Z,99746.90
2023-03-29T14:15:36.570Z,99744.22
2023-03-29T14:18:04.829Z,99740.27
2023-03-29T14:20:33.816Z,99736.20
2023-03-29T14:23:02.252Z,99735.95
2023-03-29T14:25:30.675Z,99738.21
2023-03-29T14:27:58.954Z,99733.00
2023-03-29T14:30:29.453Z,99729.74
2023-03-29T14:32:57.761Z,99736.46
2023-03-29T14:35:33.283Z,99742.52
2023-03-29T14:38:02.533Z,99738.36
2023-03-29T14:40:31.208Z,99739.13
2023-03-29T14:43:05.704Z,99737.10
2023-03-29T14:45:34.274Z,99736.98
2023-03-29T14:48:03.501Z,99736.59
2023-03-29T14:50:33.045Z,99740.89
2023-03-29T14:53:02.389Z,99738.23
2023-03-29T14:55:31.186Z,99739.20
2023-03-29T14:58:00.777Z,99734.41
2023-03-29T15:00:42.552Z,99729.71
2023-03-29T15:03:16.083Z,99726.17
2023-03-29T15:05:52.796Z,99724.39
2023-03-29T15:08:34.979Z,99716.63
2023-03-29T15:11:12.130Z,99717.02
2023-03-29T15:13:44.478Z,99722.60
2023-03-29T15:16:19.733Z,99727.52
2023-03-29T15:18:51.944Z,99728.05
2023-03-29T15:21:22.273Z,99727.52
2023-03-29T15:23:57.701Z,99728.66
2023-03-29T15:26:33.314Z,99725.70
2023-03-29T15:29:08.190Z,99720.61
2023-03-29T15:31:39.640Z,99718.60
2023-03-29T15:34:14.370Z,99725.57
2023-03-29T15:36:46.621Z,99729.35
2023-03-29T15:39:17.338Z,99728.61
2023-03-29T15:41:48.598Z,99729.23
2023-03-29T15:44:18.021Z,99724.58
2023-03-29T15:46:47.028Z,99720.66
2023-03-29T15:49:15.557Z,99723.50
2023-03-29T15:51:43.860Z,99722.11
2023-03-29T15:54:12.085Z,99723.99
2023-03-29T15:57:08.692Z,99725.96
2023-03-29T15:59:39.623Z,99722.77
2023-03-29T16:02:16.585Z,99723.17
2023-03-29T16:04:45.487Z,99724.99
2023-03-29T16:07:17.277Z,99719.10
2023-03-29T16:09:51.551Z,99717.23
2023-03-29T16:12:19.893Z,99715.89
2023-03-29T16:14:48.696Z,99717.21
2023-03-29T16:17:17.061Z,99710.36
2023-03-29T16:19:45.503Z,99707.50
2023-03-29T16:22:14.251Z,99709.05
2023-03-29T16:24:43.908Z,99711.72
2023-03-29T16:27:12.899Z,99716.77
2023-03-29T16:29:41.846Z,99713.45
2023-03-29T16:32:11.424Z,99709.13
2023-03-29T16:37:10.174Z,99702.89
2023-03-29T16:39:41.723Z,99705.43
2023-03-29T16:42:12.306Z,99699.97
2023-03-29T16:44:44.946Z,99694.56
2023-03-29T16:47:13.242Z,99688.23
2023-03-29T16:49:43.039Z,99686.46
2023-03-29T16:52:16.770Z,99681.22
2023-03-29T16:54:45.113Z,99677.77
2023-03-29T16:57:13.543Z,99676.15
2023-03-29T16:59:45.247Z,99675.55
2023-03-29T17:02:13.647Z,99676.09
2023-03-29T17:04:42.239Z,99673.95
2023-03-29T17:07:10.581Z,99673.36
2023-03-29T17:09:39.890Z,99672.29
2023-03-29T17:12:09.022Z,99667.71
2023-03-29T17:14:38.245Z,99665.94
2023-03-29T17:17:07.008Z,99669.14
2023-03-29T17:19:42.959Z,99670.24
2023-03-29T17:22:11.346Z,99672.91
2023-03-29T17:24:39.940Z,99680.42
2023-03-29T17:27:08.546Z,99681.38
2023-03-29T17:29:40.591Z,99684.45
2023-03-29T17:32:09.206Z,99686.81
2023-03-29T17:34:42.940Z,99690.01
2023-03-29T17:37:13.505Z,99686.19
2023-03-29T17:39:47.346Z,99684.52
2023-03-29T17:42:18.383Z,99680.69
2023-03-29T17:44:47.099Z,99681.73
2023-03-29T17:47:15.558Z,99682.88
2023-03-29T17:49:43.903Z,99684.73
2023-03-29T17:52:12.871Z,99684.10
2023-03-29T17:54:44.529Z,99681.24
2023-03-29T17:57:12.899Z,99685.84
2023-03-29T17:59:41.645Z,99686.24
2023-03-29T18:02:17.918Z,99686.02
2023-03-29T18:04:49.095Z,99686.95
2023-03-29T18:07:17.988Z,99689.23
2023-03-29T18:09:46.438Z,99690.32
2023-03-29T18:12:15.107Z,99689.13
2023-03-29T18:14:43.627Z,99689.52
2023-03-29T18:17:11.911Z,99688.38
2023-03-29T18:19:40.874Z,99689.67
2023-03-29T18:22:09.385Z,99689.60
2023-03-29T18:24:37.847Z,99687.23
2023-03-29T18:27:06.302Z,99690.25
2023-03-29T18:29:35.165Z,99688.36
2023-03-29T18:32:03.709Z,99690.17
2023-03-29T18:34:34.511Z,99691.00
2023-03-29T18:37:03.179Z,99690.02
2023-03-29T18:39:35.014Z,99694.19
2023-03-29T18:42:06.325Z,99693.81
2023-03-29T18:44:34.557Z,99695.77
2023-03-29T18:47:03.211Z,99693.37
2023-03-29T18:49:32.801Z,99690.74
2023-03-29T18:52:04.490Z,99690.25
2023-03-29T18:54:32.893Z,99691.33
2023-03-29T18:57:01.317Z,99688.35
2023-03-29T18:59:29.707Z,99688.45
2023-03-29T19:01:58.192Z,99687.86
2023-03-29T19:04:27.362Z,99688.20
2023-03-29T19:06:56.353Z,99686.14
2023-03-29T19:09:25.030Z,99681.98
2023-03-29T19:11:53.647Z,99677.25
2023-03-29T19:14:24.403Z,99677.52
2023-03-29T19:16:53.421Z,99670.80
2023-03-29T19:19:24.550Z,99669.80
2023-03-29T19:21:53.634Z,99670.83
2023-03-29T19:24:25.552Z,99669.19
2023-03-29T19:26:54.563Z,99665.45
2023-03-29T19:29:23.304Z,99663.77
2023-03-29T19:31:52.264Z,99668.39
2023-03-29T19:34:23.195Z,99665.66
2023-03-29T19:36:55.460Z,99667.25
2023-03-29T19:39:25.480Z,99663.78
2023-03-29T19:41:53.938Z,99663.59
2023-03-29T19:44:24.129Z,99666.56
2023-03-29T19:46:52.687Z,99660.98
2023-03-29T19:49:20.982Z,99660.95
2023-03-29T19:51:49.295Z,99658.80
2023-03-29T19:54:17.805Z,99657.73
2023-03-29T19:56:52.404Z,99657.58
2023-03-29T19:59:21.159Z,99651.13
2023-03-29T20:01:52.404Z,99645.38
2023-03-29T20:04:24.580Z,99644.67
2023-03-29T20:06:59.260Z,99645.91
2023-03-29T20:09:27.703Z,99644.73
2023-03-29T20:11:56.542Z,99637.94
2023-03-29T20:14:25.680Z,99632.33
2023-03-29T20:16:54.987Z,99633.33
2023-03-29T20:19:27.023Z,99635.14
2023-03-29T20:21:59.013Z,99634.94
2023-03-29T20:24:27.600Z,99633.08
2023-03-29T20:26:56.059Z,99631.89
2023-03-29T20:29:24.346Z,99627.41
2023-03-29T20:31:52.806Z,99629.18
2023-03-29T20:34:22.503Z,99633.95
2023-03-29T20:36:50.953Z,99628.98
2023-03-29T20:39:19.883Z,99621.25
2023-03-29T20:41:48.861Z,99615.80
2023-03-29T20:44:17.764Z,99615.23
2023-03-29T20:47:02.739Z,99610.30
2023-03-29T20:49:38.414Z,99612.31
2023-03-29T20:52:12.973Z,99611.30
2023-03-29T20:54:42.466Z,99606.90
2023-03-29T20:57:16.300Z,99604.98
2023-03-29T20:59:45.228Z,99600.62
2023-03-29T21:02:21.233Z,99603.50
2023-03-29T21:04:53.931Z,99601.75
2023-03-29T21:07:22.621Z,99594.75
2023-03-29T21:09:51.457Z,99588.69
2023-03-29T21:12:20.360Z,99585.89
2023-03-29T21:14:48.626Z,99585.58
2023-03-29T21:17:16.889Z,99582.27
2023-03-29T21:19:45.497Z,99578.95
2023-03-29T21:22:14.019Z,99577.55
2023-03-29T21:24:50.613Z,99573.33
2023-03-29T21:27:19.206Z,99571.45
2023-03-29T21:29:50.473Z,99565.76
2023-03-29T21:32:21.048Z,99559.69
2023-03-29T21:34:49.735Z,99556.25
2023-03-29T21:37:18.757Z,99555.80
2023-03-29T21:39:47.535Z,99554.46
2023-03-29T21:42:15.897Z,99550.37
2023-03-29T21:44:47.529Z,99546.58
2023-03-29T21:47:15.911Z,99544.98
2023-03-29T21:49:44.476Z,99543.70
2023-03-29T21:52:12.779Z,99545.59
2023-03-29T21:54:41.175Z,99546.40
2023-03-29T21:57:09.561Z,99539.58
2023-03-29T21:59:38.336Z,99536.27
2023-03-29T22:02:06.891Z,99539.02
2023-03-29T22:04:38.711Z,99538.52
2023-03-29T22:07:08.517Z,99537.83
2023-03-29T22:09:42.001Z,99532.44
2023-03-29T22:12:12.300Z,99530.85
2023-03-29T22:14:46.620Z,99530.11
2023-03-29T22:17:16.311Z,99527.66
2023-03-29T22:19:44.961Z,99526.44
2023-03-29T22:22:14.881Z,99523.83
2023-03-29T22:24:48.373Z,99519.77
2023-03-29T22:27:16.782Z,99517.84
2023-03-29T22:29:58.772Z,99509.81
2023-03-29T22:32:36.704Z,99514.11
2023-03-29T22:35:09.800Z,99513.58
2023-03-29T22:37:43.647Z,99512.02
2023-03-29T22:40:13.762Z,99512.89
2023-03-29T22:42:42.360Z,99512.55
2023-03-29T22:45:11.288Z,99509.25
2023-03-29T22:47:39.810Z,99508.94
2023-03-29T22:50:17.756Z,99508.47
2023-03-29T22:52:50.686Z,99501.98
2023-03-29T22:55:23.097Z,99505.59
2023-03-29T22:57:54.515Z,99506.60
2023-03-29T23:00:24.068Z,99502.38
2023-03-29T23:02:57.939Z,99496.54
2023-03-29T23:05:29.574Z,99493.27
2023-03-29T23:08:01.352Z,99492.62
2023-03-29T23:10:31.051Z,99489.86
2023-03-29T23:13:09.637Z,99489.01
2023-03-29T23:15:52.867Z,99485.92
2023-03-29T23:18:23.774Z,99485.56
2023-03-29T23:21:06.780Z,99483.77
2023-03-29T23:23:41.969Z,99483.23
2023-03-29T23:26:20.344Z,99480.87
2023-03-29T23:28:54.825Z,99479.25
2023-03-29T23:31:28.182Z,99478.98
2023-03-29T23:34:00.138Z,99473.34
2023-03-29T23:36:32.390Z,99466.15
2023-03-29T23:39:07.238Z,99466.59
2023-03-29T23:41:36.511Z,99466.36
2023-03-29T23:44:15.082Z,99462.97
2023-03-29T23:46:49.885Z,99464.29
2023-03-29T23:49:22.944Z,99458.48
2023-03-29T23:51:54.211Z,99459.83
2023-03-29T23:54:29.397Z,99456.85
2023-03-29T23:57:03.090Z,99459.09
2023-03-29T23:59:38.835Z,99460.48
